Flight Track Log - Related Links

Times and Time Zones

All times are in EST time to prevent confusion due to time zone crossing. See the QXE2348 flight status page for this flight to view local times or setup timezone preferences in your user account.

Time Position Orientation Groundspeed Altitude Reporting Facility
EST Latitude Longitude Course Direction KTS MPH feet Rate Location/Type
Sun 01:49:00 PM 47.4167 -121.5247 90° East  Level FlightAware Approximate
Sun 01:50:00 PM 47.4167 -121.3949 90° East  Level FlightAware Approximate
Sun 01:51:00 PM 47.4167 -121.2650 90° East  Level FlightAware Approximate
Sun 01:52:00 PM 47.4167 -121.1352 90° East  Level FlightAware Approximate
Sun 01:53:00 PM 47.4167 -121.0054 90° East  Level FlightAware Approximate
Sun 01:54:00 PM 47.4108 -120.8760 95° East  Level FlightAware Approximate
Sun 01:55:00 PM 47.4036 -120.7466 95° East  Level FlightAware Approximate
Sun 01:56:00 PM 47.4001 -120.6171 90° East  Level FlightAware Approximate
Sun 01:57:00 PM 47.4001 -120.4873 90° East  Level FlightAware Approximate
Sun 01:58:00 PM 47.3938 -120.3571 78° East  Level Estimated
Sun 01:59:00 PM 47.3875 -120.2270 90° East  Level Estimated
Sun 02:00:00 PM 47.3809 -120.0969 89° East  Level Estimated
Sun 02:01:00 PM 47.3873 -119.9668 86° East  Level FlightAware Approximate
Sun 02:02:00 PM 47.3935 -119.8366 86° East  Level FlightAware Approximate
Sun 02:03:00 PM 47.3995 -119.7064 86° East  Level FlightAware Approximate
Sun 02:04:00 PM 47.4054 -119.5762 86° East  Level FlightAware Approximate
Sun 02:05:00 PM 47.4112 -119.4459 86° East  Level FlightAware Approximate
Sun 02:06:00 PM 47.4168 -119.3157 86° East  Level FlightAware Approximate
Sun 02:07:00 PM 47.4223 -119.1854 86° East  Level FlightAware Approximate
Sun 02:08:00 PM 47.4276 -119.0550 87° East  Level FlightAware Approximate
Sun 02:09:00 PM 47.4328 -118.9247 87° East  Level FlightAware Approximate
Sun 02:10:00 PM 47.4378 -118.7942 87° East  Level FlightAware Approximate
Sun 02:11:00 PM 47.4422 -118.6771 87° East  Level FlightAware Approximate
Sun 02:12:00 PM 47.4464 -118.5600 87° East  Level FlightAware Approximate
Sun 02:13:00 PM 47.4506 -118.4429 87° East  Level FlightAware Approximate
Sun 02:14:00 PM 47.4546 -118.3258 87° East  Level FlightAware Approximate
Sun 02:15:00 PM 47.4585 -118.2086 87° East  Level FlightAware Approximate
Sun 02:16:00 PM 47.4623 -118.0914 87° East  Level FlightAware Approximate
Sun 02:17:00 PM 47.4659 -117.9742 87° East  Level FlightAware Approximate
Sun 02:18:00 PM 47.4666 -117.8557 90° East  Level FlightAware Approximate
Sun 02:19:00 PM 47.4663 -117.7384 90° East  Level FlightAware Approximate
Sun 02:20:00 PM 47.4660 -117.6211 90° East  Level FlightAware Approximate
Sun 02:21:00 PM 47.4655 -117.5037 90° East  Level FlightAware Approximate
Sun 02:22:00 PM 47.4648 -117.3708 90° East  Level FlightAware Approximate
Sun 02:23:00 PM 47.4640 -117.2380 90° East  Level FlightAware Approximate
Sun 02:24:00 PM 47.4630 -117.1051 91° East  Level FlightAware Approximate
Sun 02:25:00 PM 47.4619 -116.9722 91° East  Level FlightAware Approximate
Sun 02:26:00 PM 47.4606 -116.8393 91° East  Level FlightAware Approximate
Sun 02:27:00 PM 47.4591 -116.7065 91° East  Level FlightAware Approximate
Sun 02:28:00 PM 47.4575 -116.5736 91° East  Level FlightAware Approximate
Sun 02:29:00 PM 47.4569 -116.4419 90° East  Level FlightAware Approximate
Sun 02:30:00 PM 47.4562 -116.3093 90° East  Level FlightAware Approximate
Sun 02:31:00 PM 47.4553 -116.1767 91° East  Level FlightAware Approximate
Sun 02:32:00 PM 47.4542 -116.0410 91° East  Level FlightAware Approximate
Sun 02:33:00 PM 47.4530 -115.9054 91° East  Level FlightAware Approximate
Sun 02:34:00 PM 47.4516 -115.7698 91° East  Level FlightAware Approximate
Sun 02:35:00 PM 47.4500 -115.6341 91° East  Level FlightAware Approximate
Sun 02:36:00 PM 47.4173 -115.5073 111° Southeast  Level FlightAware Approximate
Sun 02:37:00 PM 47.3843 -115.3809 111° Southeast  Level FlightAware Approximate
Sun 02:38:00 PM 47.3515 -115.2558 111° Southeast  Level FlightAware Approximate
Sun 02:39:00 PM 47.3200 -115.1298 110° East  Level FlightAware Approximate
Sun 02:40:00 PM 47.2854 -115.0061 116° Southeast  Level FlightAware Approximate
Sun 02:41:00 PM 47.2607 -114.8782 112° Southeast  Level FlightAware Approximate
Sun 02:42:00 PM 47.2269 -114.7540 112° Southeast  Level FlightAware Approximate
Sun 02:43:00 PM 47.1912 -114.6312 110° East  Level FlightAware Approximate
Sun 02:44:00 PM 47.1548 -114.5096 126° Southeast  Level FlightAware Approximate
Sun 02:45:00 PM 47.1010 -114.4020 126° Southeast  Level FlightAware Approximate
Sun 02:46:00 PM 47.0437 -114.2986 129° Southeast  Level FlightAware Approximate
Sun 02:47:00 PM 46.9787 -114.2075 126° Southeast  Level FlightAware Approximate
Sun 02:48:00 PM 46.9218 -114.1051 146° Southeast  Level FlightAware Approximate
Sun 02:49:00 PM 46.9163 -114.0906 146° Southeast  Level Estimated
Sun 02:50:00 PM 46.9163 -114.0906 146° Southeast  Level Estimated
Sun 02:51:00 PM 46.9163 -114.0906 146° Southeast  Level Estimated
Sun 02:52:00 PM 46.9163 -114.0906 146° Southeast  Level Estimated
Sun 02:53:00 PM 46.9163 -114.0906 146° Southeast  Level Estimated
Sun 02:54:00 PM 46.9163 -114.0906 146° Southeast  Level Estimated
Sun 02:55:00 PM 46.9163 -114.0906 146° Southeast  Level Estimated

Login

Don't have an account? Register now (free) for customized features, flight alerts, and more!